sensor_id;sensor_type;location;lat;lon;timestamp;temperature;humidity
35970;DHT22;22448;51.298;6.430;2024-01-30T00:00:30;6.40;99.90
35970;DHT22;22448;51.298;6.430;2024-01-30T00:02:57;6.40;99.90
35970;DHT22;22448;51.298;6.430;2024-01-30T00:05:24;6.40;99.90
35970;DHT22;22448;51.298;6.430;2024-01-30T00:07:51;6.30;99.90
35970;DHT22;22448;51.298;6.430;2024-01-30T00:10:18;6.30;99.90
35970;DHT22;22448;51.298;6.430;2024-01-30T00:12:45;6.30;99.90
35970;DHT22;22448;51.298;6.430;2024-01-30T00:15:12;6.30;99.90
35970;DHT22;22448;51.298;6.430;2024-01-30T00:17:39;6.40;99.90
35970;DHT22;22448;51.298;6.430;2024-01-30T00:20:07;6.40;99.90
35970;DHT22;22448;51.298;6.430;2024-01-30T00:22:36;6.40;99.90
35970;DHT22;22448;51.298;6.430;2024-01-30T00:25:03;6.40;99.90
35970;DHT22;22448;51.298;6.430;2024-01-30T00:27:31;6.50;99.90
35970;DHT22;22448;51.298;6.430;2024-01-30T00:29:58;6.50;99.90
35970;DHT22;22448;51.298;6.430;2024-01-30T00:32:25;6.60;99.90
35970;DHT22;22448;51.298;6.430;2024-01-30T00:34:52;6.60;99.90
35970;DHT22;22448;51.298;6.430;2024-01-30T00:37:19;6.70;99.90
35970;DHT22;22448;51.298;6.430;2024-01-30T00:39:47;6.70;99.90
35970;DHT22;22448;51.298;6.430;2024-01-30T00:42:14;6.70;99.90
35970;DHT22;22448;51.298;6.430;2024-01-30T00:44:41;6.70;99.90
35970;DHT22;22448;51.298;6.430;2024-01-30T00:47:08;6.80;99.90
35970;DHT22;22448;51.298;6.430;2024-01-30T00:49:36;6.80;99.90
35970;DHT22;22448;51.298;6.430;2024-01-30T00:52:03;6.80;99.90
35970;DHT22;22448;51.298;6.430;2024-01-30T00:54:31;6.80;99.90
35970;DHT22;22448;51.298;6.430;2024-01-30T00:56:58;6.80;99.90
35970;DHT22;22448;51.298;6.430;2024-01-30T00:59:25;6.80;99.90
35970;DHT22;22448;51.298;6.430;2024-01-30T01:01:52;6.80;99.90
35970;DHT22;22448;51.298;6.430;2024-01-30T01:04:19;6.80;99.90
35970;DHT22;22448;51.298;6.430;2024-01-30T01:06:48;6.70;99.90
35970;DHT22;22448;51.298;6.430;2024-01-30T01:09:15;6.60;99.90
35970;DHT22;22448;51.298;6.430;2024-01-30T01:11:42;6.60;99.90
35970;DHT22;22448;51.298;6.430;2024-01-30T01:14:09;6.60;99.90
35970;DHT22;22448;51.298;6.430;2024-01-30T01:16:36;6.60;99.90
35970;DHT22;22448;51.298;6.430;2024-01-30T01:19:04;6.60;99.90
35970;DHT22;22448;51.298;6.430;2024-01-30T01:21:31;6.50;99.90
35970;DHT22;22448;51.298;6.430;2024-01-30T01:23:58;6.50;99.90
35970;DHT22;22448;51.298;6.430;2024-01-30T01:26:25;6.50;99.90
35970;DHT22;22448;51.298;6.430;2024-01-30T01:28:52;6.50;99.90
35970;DHT22;22448;51.298;6.430;2024-01-30T01:31:19;6.50;99.90
35970;DHT22;22448;51.298;6.430;2024-01-30T01:33:49;6.50;99.90
35970;DHT22;22448;51.298;6.430;2024-01-30T01:36:16;6.50;99.90
35970;DHT22;22448;51.298;6.430;2024-01-30T01:38:43;6.50;99.90
35970;DHT22;22448;51.298;6.430;2024-01-30T01:41:10;6.50;99.90
35970;DHT22;22448;51.298;6.430;2024-01-30T01:43:38;6.60;99.90
35970;DHT22;22448;51.298;6.430;2024-01-30T01:46:06;6.50;99.90
35970;DHT22;22448;51.298;6.430;2024-01-30T01:48:34;6.50;99.90
35970;DHT22;22448;51.298;6.430;2024-01-30T01:51:01;6.50;99.90
35970;DHT22;22448;51.298;6.430;2024-01-30T01:53:29;6.50;99.90
35970;DHT22;22448;51.298;6.430;2024-01-30T01:55:56;6.50;99.90
35970;DHT22;22448;51.298;6.430;2024-01-30T01:58:27;6.50;99.90
35970;DHT22;22448;51.298;6.430;2024-01-30T02:00:56;6.50;99.90
35970;DHT22;22448;51.298;6.430;2024-01-30T02:03:24;6.40;99.90
35970;DHT22;22448;51.298;6.430;2024-01-30T02:05:51;6.40;99.90
35970;DHT22;22448;51.298;6.430;2024-01-30T02:08:18;6.40;99.90
35970;DHT22;22448;51.298;6.430;2024-01-30T02:10:46;6.40;99.90
35970;DHT22;22448;51.298;6.430;2024-01-30T02:13:13;6.40;99.90
35970;DHT22;22448;51.298;6.430;2024-01-30T02:15:40;6.30;99.90
35970;DHT22;22448;51.298;6.430;2024-01-30T02:18:07;6.30;99.90
35970;DHT22;22448;51.298;6.430;2024-01-30T02:20:35;6.30;99.90
35970;DHT22;22448;51.298;6.430;2024-01-30T02:23:02;6.30;99.90
35970;DHT22;22448;51.298;6.430;2024-01-30T02:25:36;6.30;99.90
35970;DHT22;22448;51.298;6.430;2024-01-30T02:28:04;6.30;99.90
35970;DHT22;22448;51.298;6.430;2024-01-30T02:30:31;6.30;99.90
35970;DHT22;22448;51.298;6.430;2024-01-30T02:32:58;6.20;99.90
35970;DHT22;22448;51.298;6.430;2024-01-30T02:35:25;6.20;99.90
35970;DHT22;22448;51.298;6.430;2024-01-30T02:37:52;6.20;99.90
35970;DHT22;22448;51.298;6.430;2024-01-30T02:40:19;6.20;99.90
35970;DHT22;22448;51.298;6.430;2024-01-30T02:42:46;6.20;99.90
35970;DHT22;22448;51.298;6.430;2024-01-30T02:45:14;6.20;99.90
35970;DHT22;22448;51.298;6.430;2024-01-30T02:47:41;6.20;99.90
35970;DHT22;22448;51.298;6.430;2024-01-30T02:50:08;6.20;99.90
35970;DHT22;22448;51.298;6.430;2024-01-30T02:52:36;6.20;99.90
35970;DHT22;22448;51.298;6.430;2024-01-30T02:55:03;6.10;99.90
35970;DHT22;22448;51.298;6.430;2024-01-30T02:57:30;6.10;99.90
35970;DHT22;22448;51.298;6.430;2024-01-30T02:59:57;6.10;99.90
35970;DHT22;22448;51.298;6.430;2024-01-30T03:02:24;6.00;99.90
35970;DHT22;22448;51.298;6.430;2024-01-30T03:04:52;6.00;99.90
35970;DHT22;22448;51.298;6.430;2024-01-30T03:07:19;6.00;99.90
35970;DHT22;22448;51.298;6.430;2024-01-30T03:09:46;6.00;99.90
35970;DHT22;22448;51.298;6.430;2024-01-30T03:12:13;6.00;99.90
35970;DHT22;22448;51.298;6.430;2024-01-30T03:14:41;6.00;99.90
35970;DHT22;22448;51.298;6.430;2024-01-30T03:17:08;6.00;99.90
35970;DHT22;22448;51.298;6.430;2024-01-30T03:19:35;6.00;99.90
35970;DHT22;22448;51.298;6.430;2024-01-30T03:22:02;6.00;99.90
35970;DHT22;22448;51.298;6.430;2024-01-30T03:24:29;6.00;99.90
35970;DHT22;22448;51.298;6.430;2024-01-30T03:26:57;6.00;99.90
35970;DHT22;22448;51.298;6.430;2024-01-30T03:29:24;6.00;99.90
35970;DHT22;22448;51.298;6.430;2024-01-30T03:31:51;6.00;99.90
35970;DHT22;22448;51.298;6.430;2024-01-30T03:34:18;6.00;99.90
35970;DHT22;22448;51.298;6.430;2024-01-30T03:36:45;5.90;99.90
35970;DHT22;22448;51.298;6.430;2024-01-30T03:39:12;5.90;99.90
35970;DHT22;22448;51.298;6.430;2024-01-30T03:41:42;5.90;99.90
35970;DHT22;22448;51.298;6.430;2024-01-30T03:44:10;5.90;99.90
35970;DHT22;22448;51.298;6.430;2024-01-30T03:46:37;5.90;99.90
35970;DHT22;22448;51.298;6.430;2024-01-30T03:49:05;5.90;99.90
35970;DHT22;22448;51.298;6.430;2024-01-30T03:51:32;5.90;99.90
35970;DHT22;22448;51.298;6.430;2024-01-30T03:53:59;5.90;99.90
35970;DHT22;22448;51.298;6.430;2024-01-30T03:56:26;5.90;99.90
35970;DHT22;22448;51.298;6.430;2024-01-30T03:58:53;5.90;99.90
35970;DHT22;22448;51.298;6.430;2024-01-30T04:01:20;5.90;99.90
35970;DHT22;22448;51.298;6.430;2024-01-30T04:03:47;5.90;99.90
35970;DHT22;22448;51.298;6.430;2024-01-30T04:06:15;5.90;99.90
35970;DHT22;22448;51.298;6.430;2024-01-30T04:08:42;5.90;99.90
35970;DHT22;22448;51.298;6.430;2024-01-30T04:11:09;5.90;99.90
35970;DHT22;22448;51.298;6.430;2024-01-30T04:13:36;5.90;99.90
35970;DHT22;22448;51.298;6.430;2024-01-30T04:16:04;5.90;99.90
35970;DHT22;22448;51.298;6.430;2024-01-30T04:18:31;5.80;99.90
35970;DHT22;22448;51.298;6.430;2024-01-30T04:20:59;5.80;99.90
35970;DHT22;22448;51.298;6.430;2024-01-30T04:23:26;5.80;99.90
35970;DHT22;22448;51.298;6.430;2024-01-30T04:25:53;5.70;99.90
35970;DHT22;22448;51.298;6.430;2024-01-30T04:28:20;5.70;99.90
35970;DHT22;22448;51.298;6.430;2024-01-30T04:30:47;5.70;99.90
35970;DHT22;22448;51.298;6.430;2024-01-30T04:33:14;5.70;99.90
35970;DHT22;22448;51.298;6.430;2024-01-30T04:35:41;5.70;99.90
35970;DHT22;22448;51.298;6.430;2024-01-30T04:38:08;5.70;99.90
35970;DHT22;22448;51.298;6.430;2024-01-30T04:40:35;5.70;99.90
35970;DHT22;22448;51.298;6.430;2024-01-30T04:43:02;5.70;99.90
35970;DHT22;22448;51.298;6.430;2024-01-30T04:45:29;5.70;99.90
35970;DHT22;22448;51.298;6.430;2024-01-30T04:47:56;5.70;99.90
35970;DHT22;22448;51.298;6.430;2024-01-30T04:50:24;5.80;99.90
35970;DHT22;22448;51.298;6.430;2024-01-30T04:52:51;5.80;99.90
35970;DHT22;22448;51.298;6.430;2024-01-30T04:55:18;5.80;99.90
35970;DHT22;22448;51.298;6.430;2024-01-30T04:57:49;5.80;99.90
35970;DHT22;22448;51.298;6.430;2024-01-30T05:00:16;5.80;99.90
35970;DHT22;22448;51.298;6.430;2024-01-30T05:02:43;5.80;99.90
35970;DHT22;22448;51.298;6.430;2024-01-30T05:05:10;5.80;99.90
35970;DHT22;22448;51.298;6.430;2024-01-30T05:07:40;5.80;99.90
35970;DHT22;22448;51.298;6.430;2024-01-30T05:10:08;5.80;99.90
35970;DHT22;22448;51.298;6.430;2024-01-30T05:12:35;5.70;99.90
35970;DHT22;22448;51.298;6.430;2024-01-30T05:15:02;5.70;99.90
35970;DHT22;22448;51.298;6.430;2024-01-30T05:17:29;5.60;99.90
35970;DHT22;22448;51.298;6.430;2024-01-30T05:19:56;5.60;99.90
35970;DHT22;22448;51.298;6.430;2024-01-30T05:22:23;5.60;99.90
35970;DHT22;22448;51.298;6.430;2024-01-30T05:24:50;5.50;99.90
35970;DHT22;22448;51.298;6.430;2024-01-30T05:27:18;5.50;99.90
35970;DHT22;22448;51.298;6.430;2024-01-30T05:29:45;5.50;99.90
35970;DHT22;22448;51.298;6.430;2024-01-30T05:32:12;5.50;99.90
35970;DHT22;22448;51.298;6.430;2024-01-30T05:34:39;5.40;99.90
35970;DHT22;22448;51.298;6.430;2024-01-30T05:37:06;5.40;99.90
35970;DHT22;22448;51.298;6.430;2024-01-30T05:39:34;5.40;99.90
35970;DHT22;22448;51.298;6.430;2024-01-30T05:42:02;5.50;99.90
35970;DHT22;22448;51.298;6.430;2024-01-30T05:44:29;5.50;99.90
35970;DHT22;22448;51.298;6.430;2024-01-30T05:46:56;5.50;99.90
35970;DHT22;22448;51.298;6.430;2024-01-30T05:49:23;5.60;99.90
35970;DHT22;22448;51.298;6.430;2024-01-30T05:51:51;5.60;99.90
35970;DHT22;22448;51.298;6.430;2024-01-30T05:54:18;5.60;99.90
35970;DHT22;22448;51.298;6.430;2024-01-30T05:56:45;5.60;99.90
35970;DHT22;22448;51.298;6.430;2024-01-30T05:59:12;5.60;99.90
35970;DHT22;22448;51.298;6.430;2024-01-30T06:01:45;5.60;99.90
35970;DHT22;22448;51.298;6.430;2024-01-30T06:04:13;5.60;99.90
35970;DHT22;22448;51.298;6.430;2024-01-30T06:06:41;5.70;99.90
35970;DHT22;22448;51.298;6.430;2024-01-30T06:09:08;5.70;99.90
35970;DHT22;22448;51.298;6.430;2024-01-30T06:11:36;5.70;99.90
35970;DHT22;22448;51.298;6.430;2024-01-30T06:14:03;5.80;99.90
35970;DHT22;22448;51.298;6.430;2024-01-30T06:16:30;5.90;99.90
35970;DHT22;22448;51.298;6.430;2024-01-30T06:18:57;5.90;99.90
35970;DHT22;22448;51.298;6.430;2024-01-30T06:21:25;6.00;99.90
35970;DHT22;22448;51.298;6.430;2024-01-30T06:23:52;6.00;99.90
35970;DHT22;22448;51.298;6.430;2024-01-30T06:26:19;6.00;99.90
35970;DHT22;22448;51.298;6.430;2024-01-30T06:28:46;6.00;99.90
35970;DHT22;22448;51.298;6.430;2024-01-30T06:31:13;6.00;99.90
35970;DHT22;22448;51.298;6.430;2024-01-30T06:33:40;6.00;99.90
35970;DHT22;22448;51.298;6.430;2024-01-30T06:36:09;6.00;99.90
35970;DHT22;22448;51.298;6.430;2024-01-30T06:38:36;6.00;99.90
35970;DHT22;22448;51.298;6.430;2024-01-30T06:41:03;6.00;99.90
35970;DHT22;22448;51.298;6.430;2024-01-30T06:43:30;6.00;99.90
35970;DHT22;22448;51.298;6.430;2024-01-30T06:45:57;6.00;99.90
35970;DHT22;22448;51.298;6.430;2024-01-30T06:48:25;6.00;99.90
35970;DHT22;22448;51.298;6.430;2024-01-30T06:50:53;6.00;99.90
35970;DHT22;22448;51.298;6.430;2024-01-30T06:53:21;6.00;99.90
35970;DHT22;22448;51.298;6.430;2024-01-30T06:55:48;6.00;99.90
35970;DHT22;22448;51.298;6.430;2024-01-30T06:58:15;6.10;99.90
35970;DHT22;22448;51.298;6.430;2024-01-30T07:00:42;6.10;99.90
35970;DHT22;22448;51.298;6.430;2024-01-30T07:03:09;6.10;99.90
35970;DHT22;22448;51.298;6.430;2024-01-30T07:05:36;6.10;99.90
35970;DHT22;22448;51.298;6.430;2024-01-30T07:08:03;6.10;99.90
35970;DHT22;22448;51.298;6.430;2024-01-30T07:10:31;6.20;99.90
35970;DHT22;22448;51.298;6.430;2024-01-30T07:13:00;6.20;99.90
35970;DHT22;22448;51.298;6.430;2024-01-30T07:15:27;6.20;99.90
35970;DHT22;22448;51.298;6.430;2024-01-30T07:17:54;6.20;99.90
35970;DHT22;22448;51.298;6.430;2024-01-30T07:20:21;6.20;99.90
35970;DHT22;22448;51.298;6.430;2024-01-30T07:22:48;6.20;99.90
35970;DHT22;22448;51.298;6.430;2024-01-30T07:25:15;6.20;99.90
35970;DHT22;22448;51.298;6.430;2024-01-30T07:27:44;6.30;99.90
35970;DHT22;22448;51.298;6.430;2024-01-30T07:30:11;6.20;99.90
35970;DHT22;22448;51.298;6.430;2024-01-30T07:32:38;6.20;99.90
35970;DHT22;22448;51.298;6.430;2024-01-30T07:35:05;6.20;99.90
35970;DHT22;22448;51.298;6.430;2024-01-30T07:37:35;6.20;99.90
35970;DHT22;22448;51.298;6.430;2024-01-30T07:40:03;6.20;99.90
35970;DHT22;22448;51.298;6.430;2024-01-30T07:42:31;6.30;99.90
35970;DHT22;22448;51.298;6.430;2024-01-30T07:44:58;6.20;99.90
35970;DHT22;22448;51.298;6.430;2024-01-30T07:47:25;6.20;99.90
35970;DHT22;22448;51.298;6.430;2024-01-30T07:49:53;6.20;99.90
35970;DHT22;22448;51.298;6.430;2024-01-30T07:52:21;6.30;99.90
35970;DHT22;22448;51.298;6.430;2024-01-30T07:54:48;6.30;99.90
35970;DHT22;22448;51.298;6.430;2024-01-30T07:57:15;6.30;99.90
35970;DHT22;22448;51.298;6.430;2024-01-30T07:59:43;6.30;99.90
35970;DHT22;22448;51.298;6.430;2024-01-30T08:02:14;6.40;99.90
35970;DHT22;22448;51.298;6.430;2024-01-30T08:04:41;6.40;99.90
35970;DHT22;22448;51.298;6.430;2024-01-30T08:07:09;6.40;99.90
35970;DHT22;22448;51.298;6.430;2024-01-30T08:09:36;6.40;99.90
35970;DHT22;22448;51.298;6.430;2024-01-30T08:12:03;6.40;99.90
35970;DHT22;22448;51.298;6.430;2024-01-30T08:14:31;6.50;99.90
35970;DHT22;22448;51.298;6.430;2024-01-30T08:16:58;6.50;99.90
35970;DHT22;22448;51.298;6.430;2024-01-30T08:19:25;6.60;99.90
35970;DHT22;22448;51.298;6.430;2024-01-30T08:21:52;6.60;99.90
35970;DHT22;22448;51.298;6.430;2024-01-30T08:24:19;6.60;99.90
35970;DHT22;22448;51.298;6.430;2024-01-30T08:26:46;6.70;99.90
35970;DHT22;22448;51.298;6.430;2024-01-30T08:29:13;6.70;99.90
35970;DHT22;22448;51.298;6.430;2024-01-30T08:31:40;6.80;99.90
35970;DHT22;22448;51.298;6.430;2024-01-30T08:34:07;6.80;99.90
35970;DHT22;22448;51.298;6.430;2024-01-30T08:36:35;6.80;99.90
35970;DHT22;22448;51.298;6.430;2024-01-30T08:39:02;6.80;99.90
35970;DHT22;22448;51.298;6.430;2024-01-30T08:41:32;6.80;99.90
35970;DHT22;22448;51.298;6.430;2024-01-30T08:43:59;6.80;99.90
35970;DHT22;22448;51.298;6.430;2024-01-30T08:46:26;6.80;99.90
35970;DHT22;22448;51.298;6.430;2024-01-30T08:48:53;6.80;99.90
35970;DHT22;22448;51.298;6.430;2024-01-30T08:51:20;6.80;99.90
35970;DHT22;22448;51.298;6.430;2024-01-30T08:53:47;6.80;99.90
35970;DHT22;22448;51.298;6.430;2024-01-30T08:56:15;6.80;99.90
35970;DHT22;22448;51.298;6.430;2024-01-30T08:58:43;6.80;99.90
35970;DHT22;22448;51.298;6.430;2024-01-30T09:01:10;6.80;99.90
35970;DHT22;22448;51.298;6.430;2024-01-30T09:03:37;6.80;99.90
35970;DHT22;22448;51.298;6.430;2024-01-30T09:06:09;6.90;99.90
35970;DHT22;22448;51.298;6.430;2024-01-30T09:08:36;6.90;99.90
35970;DHT22;22448;51.298;6.430;2024-01-30T09:11:12;7.00;99.90
35970;DHT22;22448;51.298;6.430;2024-01-30T09:13:40;7.10;99.90
35970;DHT22;22448;51.298;6.430;2024-01-30T09:16:08;7.20;99.90
35970;DHT22;22448;51.298;6.430;2024-01-30T09:18:35;7.30;99.90
35970;DHT22;22448;51.298;6.430;2024-01-30T09:21:02;7.40;99.90
35970;DHT22;22448;51.298;6.430;2024-01-30T09:23:30;7.40;99.90
35970;DHT22;22448;51.298;6.430;2024-01-30T09:25:56;7.50;99.90
35970;DHT22;22448;51.298;6.430;2024-01-30T09:28:24;7.50;99.90
35970;DHT22;22448;51.298;6.430;2024-01-30T09:30:53;7.60;99.90
35970;DHT22;22448;51.298;6.430;2024-01-30T09:33:20;7.70;99.90
35970;DHT22;22448;51.298;6.430;2024-01-30T09:35:47;7.80;99.90
35970;DHT22;22448;51.298;6.430;2024-01-30T09:38:14;7.90;99.90
35970;DHT22;22448;51.298;6.430;2024-01-30T09:40:41;8.00;99.90
35970;DHT22;22448;51.298;6.430;2024-01-30T09:43:11;8.10;99.90
35970;DHT22;22448;51.298;6.430;2024-01-30T09:45:42;8.20;99.90
35970;DHT22;22448;51.298;6.430;2024-01-30T09:48:11;8.40;99.90
35970;DHT22;22448;51.298;6.430;2024-01-30T09:50:39;8.50;99.90
35970;DHT22;22448;51.298;6.430;2024-01-30T09:53:08;8.60;99.90
35970;DHT22;22448;51.298;6.430;2024-01-30T09:55:36;8.60;99.90
35970;DHT22;22448;51.298;6.430;2024-01-30T09:58:03;8.60;99.90
35970;DHT22;22448;51.298;6.430;2024-01-30T10:00:30;8.60;99.90
35970;DHT22;22448;51.298;6.430;2024-01-30T10:02:57;8.60;99.90
35970;DHT22;22448;51.298;6.430;2024-01-30T10:05:27;8.60;99.90
35970;DHT22;22448;51.298;6.430;2024-01-30T10:07:57;8.70;99.90
35970;DHT22;22448;51.298;6.430;2024-01-30T10:10:25;8.70;99.90
35970;DHT22;22448;51.298;6.430;2024-01-30T10:12:52;8.70;99.90
35970;DHT22;22448;51.298;6.430;2024-01-30T10:15:20;8.70;99.90
35970;DHT22;22448;51.298;6.430;2024-01-30T10:17:47;8.80;99.90
35970;DHT22;22448;51.298;6.430;2024-01-30T10:20:14;8.80;99.90
35970;DHT22;22448;51.298;6.430;2024-01-30T10:22:42;8.90;99.90
35970;DHT22;22448;51.298;6.430;2024-01-30T10:25:11;9.00;99.90
35970;DHT22;22448;51.298;6.430;2024-01-30T10:27:39;9.10;99.90
35970;DHT22;22448;51.298;6.430;2024-01-30T10:30:08;9.10;99.90
35970;DHT22;22448;51.298;6.430;2024-01-30T10:32:35;9.10;99.90
35970;DHT22;22448;51.298;6.430;2024-01-30T10:35:02;9.20;99.90
35970;DHT22;22448;51.298;6.430;2024-01-30T10:37:30;9.20;99.90
35970;DHT22;22448;51.298;6.430;2024-01-30T10:40:03;9.20;99.90
35970;DHT22;22448;51.298;6.430;2024-01-30T10:42:36;9.20;99.90
35970;DHT22;22448;51.298;6.430;2024-01-30T10:45:11;9.30;99.90
35970;DHT22;22448;51.298;6.430;2024-01-30T10:47:50;9.30;99.90
35970;DHT22;22448;51.298;6.430;2024-01-30T10:50:18;9.40;99.90
35970;DHT22;22448;51.298;6.430;2024-01-30T10:52:46;9.40;99.90
35970;DHT22;22448;51.298;6.430;2024-01-30T10:55:16;9.50;99.90
35970;DHT22;22448;51.298;6.430;2024-01-30T10:57:43;9.50;99.90
35970;DHT22;22448;51.298;6.430;2024-01-30T11:00:13;9.60;99.90
35970;DHT22;22448;51.298;6.430;2024-01-30T11:02:45;9.60;99.90
35970;DHT22;22448;51.298;6.430;2024-01-30T11:05:13;9.60;99.90
35970;DHT22;22448;51.298;6.430;2024-01-30T11:07:40;9.60;99.90
35970;DHT22;22448;51.298;6.430;2024-01-30T11:10:08;9.60;99.90
35970;DHT22;22448;51.298;6.430;2024-01-30T11:12:40;9.50;99.90
35970;DHT22;22448;51.298;6.430;2024-01-30T11:15:09;9.50;99.90
35970;DHT22;22448;51.298;6.430;2024-01-30T11:18:03;9.60;99.90
35970;DHT22;22448;51.298;6.430;2024-01-30T11:20:31;9.60;99.90
35970;DHT22;22448;51.298;6.430;2024-01-30T11:22:59;9.70;99.90
35970;DHT22;22448;51.298;6.430;2024-01-30T11:25:31;9.70;99.90
35970;DHT22;22448;51.298;6.430;2024-01-30T11:27:58;9.80;99.90
35970;DHT22;22448;51.298;6.430;2024-01-30T11:30:27;9.90;99.90
35970;DHT22;22448;51.298;6.430;2024-01-30T11:33:27;9.90;99.90
35970;DHT22;22448;51.298;6.430;2024-01-30T11:35:58;10.10;99.90
35970;DHT22;22448;51.298;6.430;2024-01-30T11:38:28;10.20;99.90
35970;DHT22;22448;51.298;6.430;2024-01-30T11:40:55;10.30;99.90
35970;DHT22;22448;51.298;6.430;2024-01-30T11:43:25;10.40;99.90
35970;DHT22;22448;51.298;6.430;2024-01-30T11:45:52;10.40;99.90
35970;DHT22;22448;51.298;6.430;2024-01-30T11:48:19;10.50;99.90
35970;DHT22;22448;51.298;6.430;2024-01-30T11:50:47;10.60;99.90
35970;DHT22;22448;51.298;6.430;2024-01-30T11:53:13;10.60;99.90
35970;DHT22;22448;51.298;6.430;2024-01-30T11:55:40;10.60;99.90
35970;DHT22;22448;51.298;6.430;2024-01-30T11:58:07;10.70;99.90
35970;DHT22;22448;51.298;6.430;2024-01-30T12:00:35;10.70;99.90
35970;DHT22;22448;51.298;6.430;2024-01-30T12:03:03;10.70;99.90
35970;DHT22;22448;51.298;6.430;2024-01-30T12:05:31;10.80;99.90
35970;DHT22;22448;51.298;6.430;2024-01-30T12:07:58;10.80;99.90
35970;DHT22;22448;51.298;6.430;2024-01-30T12:10:27;10.90;99.90
35970;DHT22;22448;51.298;6.430;2024-01-30T12:12:55;10.90;99.90
35970;DHT22;22448;51.298;6.430;2024-01-30T12:15:22;10.90;99.90
35970;DHT22;22448;51.298;6.430;2024-01-30T12:17:50;11.00;99.90
35970;DHT22;22448;51.298;6.430;2024-01-30T12:20:20;11.00;99.90
35970;DHT22;22448;51.298;6.430;2024-01-30T12:22:49;11.00;99.90
35970;DHT22;22448;51.298;6.430;2024-01-30T12:25:18;11.00;99.90
35970;DHT22;22448;51.298;6.430;2024-01-30T12:27:50;11.10;99.90
35970;DHT22;22448;51.298;6.430;2024-01-30T12:30:19;11.00;99.90
35970;DHT22;22448;51.298;6.430;2024-01-30T12:32:49;11.00;99.90
35970;DHT22;22448;51.298;6.430;2024-01-30T12:35:17;11.00;99.90
35970;DHT22;22448;51.298;6.430;2024-01-30T12:37:46;11.00;99.90
35970;DHT22;22448;51.298;6.430;2024-01-30T12:40:14;11.00;99.90
35970;DHT22;22448;51.298;6.430;2024-01-30T12:42:42;11.00;99.90
35970;DHT22;22448;51.298;6.430;2024-01-30T12:45:10;10.90;99.90
35970;DHT22;22448;51.298;6.430;2024-01-30T12:47:37;10.90;99.90
35970;DHT22;22448;51.298;6.430;2024-01-30T12:50:04;10.90;99.90
35970;DHT22;22448;51.298;6.430;2024-01-30T12:52:31;10.90;99.90
35970;DHT22;22448;51.298;6.430;2024-01-30T12:54:59;11.00;99.90
35970;DHT22;22448;51.298;6.430;2024-01-30T12:57:25;11.00;99.90
35970;DHT22;22448;51.298;6.430;2024-01-30T12:59:52;11.00;99.90
35970;DHT22;22448;51.298;6.430;2024-01-30T13:02:19;11.00;99.90
35970;DHT22;22448;51.298;6.430;2024-01-30T13:04:47;11.10;99.90
35970;DHT22;22448;51.298;6.430;2024-01-30T13:07:16;11.00;99.90
35970;DHT22;22448;51.298;6.430;2024-01-30T13:09:43;11.10;99.90
35970;DHT22;22448;51.298;6.430;2024-01-30T13:12:11;11.20;99.90
35970;DHT22;22448;51.298;6.430;2024-01-30T13:14:38;11.20;99.90
35970;DHT22;22448;51.298;6.430;2024-01-30T13:17:05;11.30;99.90
35970;DHT22;22448;51.298;6.430;2024-01-30T13:19:32;11.30;99.90
35970;DHT22;22448;51.298;6.430;2024-01-30T13:21:59;11.40;99.90
35970;DHT22;22448;51.298;6.430;2024-01-30T13:24:25;11.40;99.90
35970;DHT22;22448;51.298;6.430;2024-01-30T13:26:53;11.50;99.90
35970;DHT22;22448;51.298;6.430;2024-01-30T13:29:20;11.50;99.90
35970;DHT22;22448;51.298;6.430;2024-01-30T13:31:48;11.50;99.90
35970;DHT22;22448;51.298;6.430;2024-01-30T13:34:15;11.50;99.90
35970;DHT22;22448;51.298;6.430;2024-01-30T13:36:42;11.50;99.90
35970;DHT22;22448;51.298;6.430;2024-01-30T13:39:10;11.50;99.90
35970;DHT22;22448;51.298;6.430;2024-01-30T13:41:39;11.60;99.90
35970;DHT22;22448;51.298;6.430;2024-01-30T13:44:06;11.60;99.90
35970;DHT22;22448;51.298;6.430;2024-01-30T13:46:34;11.60;99.90
35970;DHT22;22448;51.298;6.430;2024-01-30T13:49:02;11.60;99.90
35970;DHT22;22448;51.298;6.430;2024-01-30T13:51:29;11.60;99.90
35970;DHT22;22448;51.298;6.430;2024-01-30T13:53:56;11.60;99.90
35970;DHT22;22448;51.298;6.430;2024-01-30T13:56:23;11.60;99.90
35970;DHT22;22448;51.298;6.430;2024-01-30T13:58:50;11.50;99.90
35970;DHT22;22448;51.298;6.430;2024-01-30T14:01:17;11.40;99.90
35970;DHT22;22448;51.298;6.430;2024-01-30T14:03:45;11.40;99.90
35970;DHT22;22448;51.298;6.430;2024-01-30T14:06:12;11.30;99.90
35970;DHT22;22448;51.298;6.430;2024-01-30T14:08:40;11.30;99.90
35970;DHT22;22448;51.298;6.430;2024-01-30T14:11:10;11.30;99.90
35970;DHT22;22448;51.298;6.430;2024-01-30T14:13:37;11.20;99.90
35970;DHT22;22448;51.298;6.430;2024-01-30T14:16:04;11.20;99.90
35970;DHT22;22448;51.298;6.430;2024-01-30T14:18:34;11.20;99.90
35970;DHT22;22448;51.298;6.430;2024-01-30T14:21:00;11.20;99.90
35970;DHT22;22448;51.298;6.430;2024-01-30T14:23:27;11.20;99.90
35970;DHT22;22448;51.298;6.430;2024-01-30T14:25:54;11.20;99.90
35970;DHT22;22448;51.298;6.430;2024-01-30T14:28:21;11.20;99.90
35970;DHT22;22448;51.298;6.430;2024-01-30T14:30:48;11.20;99.90
35970;DHT22;22448;51.298;6.430;2024-01-30T14:33:15;11.20;99.90
35970;DHT22;22448;51.298;6.430;2024-01-30T14:35:43;11.30;99.90
35970;DHT22;22448;51.298;6.430;2024-01-30T14:38:10;11.30;99.90
35970;DHT22;22448;51.298;6.430;2024-01-30T14:40:38;11.20;99.90
35970;DHT22;22448;51.298;6.430;2024-01-30T14:43:06;11.20;99.90
35970;DHT22;22448;51.298;6.430;2024-01-30T14:45:33;11.20;99.90
35970;DHT22;22448;51.298;6.430;2024-01-30T14:48:00;11.30;99.90
35970;DHT22;22448;51.298;6.430;2024-01-30T14:50:27;11.20;99.90
35970;DHT22;22448;51.298;6.430;2024-01-30T14:52:55;11.20;99.90
35970;DHT22;22448;51.298;6.430;2024-01-30T14:55:22;11.10;99.90
35970;DHT22;22448;51.298;6.430;2024-01-30T14:57:49;11.10;99.90
35970;DHT22;22448;51.298;6.430;2024-01-30T15:00:17;11.20;99.90
35970;DHT22;22448;51.298;6.430;2024-01-30T15:02:44;11.10;99.90
35970;DHT22;22448;51.298;6.430;2024-01-30T15:05:13;11.10;99.90
35970;DHT22;22448;51.298;6.430;2024-01-30T15:07:41;10.90;99.90
35970;DHT22;22448;51.298;6.430;2024-01-30T15:10:09;10.90;99.90
35970;DHT22;22448;51.298;6.430;2024-01-30T15:12:38;10.80;99.90
35970;DHT22;22448;51.298;6.430;2024-01-30T15:15:07;10.70;99.90
35970;DHT22;22448;51.298;6.430;2024-01-30T15:17:35;10.50;99.90
35970;DHT22;22448;51.298;6.430;2024-01-30T15:20:02;10.40;99.90
35970;DHT22;22448;51.298;6.430;2024-01-30T15:22:31;10.30;99.90
35970;DHT22;22448;51.298;6.430;2024-01-30T15:24:58;10.20;99.90
35970;DHT22;22448;51.298;6.430;2024-01-30T15:27:25;10.10;99.90
35970;DHT22;22448;51.298;6.430;2024-01-30T15:29:54;10.00;99.90
35970;DHT22;22448;51.298;6.430;2024-01-30T15:32:21;10.00;99.90
35970;DHT22;22448;51.298;6.430;2024-01-30T15:34:48;9.90;99.90
35970;DHT22;22448;51.298;6.430;2024-01-30T15:37:15;9.90;99.90
35970;DHT22;22448;51.298;6.430;2024-01-30T15:39:43;9.90;99.90
35970;DHT22;22448;51.298;6.430;2024-01-30T15:42:10;9.80;99.90
35970;DHT22;22448;51.298;6.430;2024-01-30T15:44:38;9.80;99.90